createdAt,value
2018-08-08T00:00:38.579Z,6.27
2018-08-08T00:03:07.141Z,6.63
2018-08-08T00:05:35.702Z,7.87
2018-08-08T00:08:04.920Z,6.30
2018-08-08T00:10:33.813Z,5.93
2018-08-08T00:13:02.376Z,6.80
2018-08-08T00:15:30.957Z,11.60
2018-08-08T00:17:59.545Z,7.23
2018-08-08T00:20:27.768Z,6.37
2018-08-08T00:22:56.329Z,6.03
2018-08-08T00:25:25.074Z,9.40
2018-08-08T00:27:53.634Z,8.50
2018-08-08T00:30:21.886Z,5.57
2018-08-08T00:32:50.791Z,9.90
2018-08-08T00:35:19.336Z,6.43
2018-08-08T00:37:47.582Z,6.30
2018-08-08T00:40:16.146Z,7.83
2018-08-08T00:42:45.157Z,6.80
2018-08-08T00:45:16.133Z,7.10
2018-08-08T00:47:45.557Z,8.03
2018-08-08T00:50:15.165Z,7.83
2018-08-08T00:52:44.065Z,5.83
2018-08-08T00:55:12.417Z,8.73
2018-08-08T00:57:40.899Z,9.10
2018-08-08T01:00:14.287Z,6.37
2018-08-08T01:02:42.895Z,5.73
2018-08-08T01:05:12.350Z,8.10
2018-08-08T01:07:41.681Z,10.77
2018-08-08T01:10:10.308Z,6.97
2018-08-08T01:12:38.563Z,9.73
2018-08-08T01:15:08.318Z,7.30
2018-08-08T01:17:36.671Z,5.63
2018-08-08T01:20:05.916Z,6.33
2018-08-08T01:22:34.178Z,6.80
2018-08-08T01:25:02.785Z,7.60
2018-08-08T01:27:31.369Z,6.70
2018-08-08T01:29:59.621Z,11.37
2018-08-08T01:32:27.866Z,8.17
2018-08-08T01:34:56.130Z,7.10
2018-08-08T01:37:24.381Z,7.47
2018-08-08T01:39:52.621Z,6.20
2018-08-08T01:42:21.574Z,6.10
2018-08-08T01:44:50.188Z,9.30
2018-08-08T01:47:18.742Z,7.13
2018-08-08T01:49:46.990Z,6.23
2018-08-08T01:52:15.893Z,6.33
2018-08-08T01:54:44.183Z,7.10
2018-08-08T01:57:12.740Z,7.10
2018-08-08T01:59:41.648Z,8.80
2018-08-08T02:02:10.227Z,8.50
2018-08-08T02:04:38.922Z,10.20
2018-08-08T02:07:07.177Z,6.93
2018-08-08T02:09:35.421Z,9.07
2018-08-08T02:12:03.673Z,7.47
2018-08-08T02:15:34.544Z,7.30
2018-08-08T02:18:03.148Z,8.53
2018-08-08T02:20:31.731Z,9.57
2018-08-08T02:23:00.960Z,7.50
2018-08-08T02:25:29.532Z,8.37
2018-08-08T02:27:58.422Z,10.67
2018-08-08T02:30:26.637Z,8.67
2018-08-08T02:32:54.905Z,10.03
2018-08-08T02:35:23.178Z,8.30
2018-08-08T02:37:51.936Z,7.87
2018-08-08T02:40:20.473Z,7.93
2018-08-08T02:42:48.746Z,8.67
2018-08-08T02:45:18.618Z,8.73
2018-08-08T02:47:46.857Z,9.73
2018-08-08T02:50:16.569Z,8.93
2018-08-08T02:52:44.818Z,11.40
2018-08-08T02:55:13.547Z,8.40
2018-08-08T02:57:42.201Z,9.00
2018-08-08T03:00:12.142Z,12.00
2018-08-08T03:02:40.753Z,8.17
2018-08-08T03:05:10.083Z,10.37
2018-08-08T03:07:38.606Z,8.80
2018-08-08T03:10:11.048Z,7.93
2018-08-08T03:12:39.571Z,8.00
2018-08-08T03:15:09.905Z,9.40
2018-08-08T03:17:38.498Z,9.13
2018-08-08T03:20:07.797Z,9.57
2018-08-08T03:22:36.081Z,12.20
2018-08-08T03:25:05.717Z,12.33
2018-08-08T03:27:34.545Z,10.50
2018-08-08T03:30:02.841Z,14.63
2018-08-08T03:32:31.405Z,12.50
2018-08-08T03:34:59.646Z,11.70
2018-08-08T03:37:28.225Z,12.87
2018-08-08T03:39:56.481Z,25.50
2018-08-08T03:42:25.105Z,18.73
2018-08-08T03:44:54.269Z,15.17
2018-08-08T03:47:22.819Z,18.63
2018-08-08T03:49:51.413Z,15.50
2018-08-08T03:52:19.983Z,18.60
2018-08-08T03:54:48.908Z,16.03
2018-08-08T03:57:17.661Z,23.40
2018-08-08T03:59:46.249Z,15.47
2018-08-08T04:02:14.508Z,25.20
2018-08-08T04:04:43.097Z,16.83
2018-08-08T04:07:11.351Z,14.97
2018-08-08T04:09:39.986Z,15.80
2018-08-08T04:12:08.245Z,16.87
2018-08-08T04:14:37.182Z,27.47
2018-08-08T04:17:05.437Z,17.07
2018-08-08T04:19:33.847Z,16.97
2018-08-08T04:22:02.090Z,18.30
2018-08-08T04:24:30.726Z,18.67
2018-08-08T04:26:59.648Z,17.77
2018-08-08T04:29:28.224Z,18.80
2018-08-08T04:31:56.788Z,24.07
2018-08-08T04:34:25.437Z,20.20
2018-08-08T04:36:53.677Z,17.80
2018-08-08T04:39:22.621Z,19.27
2018-08-08T04:41:51.435Z,17.10
2018-08-08T04:44:21.460Z,17.83
2018-08-08T04:46:50.040Z,23.77
2018-08-08T04:49:18.272Z,19.40
2018-08-08T04:51:47.122Z,20.70
2018-08-08T04:54:18.962Z,19.90
2018-08-08T04:56:48.067Z,17.17
2018-08-08T04:59:16.619Z,22.63
2018-08-08T05:01:44.837Z,17.90
2018-08-08T05:04:13.453Z,17.40
2018-08-08T05:06:42.268Z,19.23
2018-08-08T05:09:14.420Z,17.87
2018-08-08T05:11:44.330Z,18.23
2018-08-08T05:14:13.987Z,16.90
2018-08-08T05:16:43.272Z,18.10
2018-08-08T05:19:12.180Z,17.37
2018-08-08T05:21:41.529Z,16.53
2018-08-08T05:24:09.792Z,19.63
2018-08-08T05:26:38.365Z,17.20
2018-08-08T05:29:07.169Z,17.17
2018-08-08T05:31:36.070Z,17.83
2018-08-08T05:34:05.402Z,16.43
2018-08-08T05:36:33.976Z,18.73
2018-08-08T05:39:02.204Z,17.27
2018-08-08T05:41:32.521Z,19.27
2018-08-08T05:44:01.086Z,16.57
2018-08-08T05:46:30.717Z,18.10
2018-08-08T05:48:58.994Z,19.30
2018-08-08T05:51:27.238Z,18.37
2018-08-08T05:53:55.994Z,22.10
2018-08-08T05:56:24.623Z,19.50
2018-08-08T05:58:53.315Z,16.33
2018-08-08T06:01:21.593Z,17.37
2018-08-08T06:03:49.842Z,15.40
2018-08-08T06:06:18.416Z,17.07
2018-08-08T06:08:47.321Z,23.93
2018-08-08T06:11:16.173Z,19.13
2018-08-08T06:13:44.409Z,25.13
2018-08-08T06:16:12.981Z,22.03
2018-08-08T06:18:41.920Z,19.73
2018-08-08T06:21:10.406Z,19.53
2018-08-08T06:23:38.986Z,27.63
2018-08-08T06:26:07.577Z,28.47
2018-08-08T06:28:36.757Z,18.17
2018-08-08T06:31:06.813Z,18.03
2018-08-08T06:33:35.057Z,19.83
2018-08-08T06:36:03.710Z,17.50
2018-08-08T06:38:32.146Z,19.10
2018-08-08T06:41:00.733Z,19.90
2018-08-08T06:43:29.309Z,15.83
2018-08-08T06:45:57.528Z,16.40
2018-08-08T06:48:26.421Z,23.27
2018-08-08T06:50:54.975Z,18.60
2018-08-08T06:53:23.898Z,17.87
2018-08-08T06:55:52.133Z,54.73
2018-08-08T06:58:21.376Z,36.03
2018-08-08T07:00:50.145Z,17.43
2018-08-08T07:03:18.708Z,16.17
2018-08-08T07:05:46.957Z,20.47
2018-08-08T07:08:15.179Z,23.97
2018-08-08T07:10:43.740Z,21.40
2018-08-08T07:13:11.990Z,17.57
2018-08-08T07:15:40.212Z,18.17
2018-08-08T07:18:08.484Z,17.53
2018-08-08T07:20:44.147Z,17.63
2018-08-08T07:23:12.741Z,15.93
2018-08-08T07:25:41.169Z,15.70
2018-08-08T07:28:40.193Z,15.20
2018-08-08T07:31:08.469Z,16.67
2018-08-08T07:33:37.355Z,16.40
2018-08-08T07:36:06.282Z,16.80
2018-08-08T07:38:35.362Z,16.60
2018-08-08T07:41:04.015Z,15.97
2018-08-08T07:43:32.297Z,16.43
2018-08-08T07:46:01.377Z,17.00
2018-08-08T07:48:29.760Z,18.23
2018-08-08T07:50:58.189Z,20.23
2018-08-08T07:53:26.765Z,17.23
2018-08-08T07:55:56.001Z,14.67
2018-08-08T07:58:24.254Z,15.20
2018-08-08T08:00:52.529Z,26.70
2018-08-08T08:03:20.757Z,16.07
2018-08-08T08:05:48.991Z,12.13
2018-08-08T08:08:17.297Z,14.10
2018-08-08T08:10:45.527Z,13.63
2018-08-08T08:13:14.427Z,12.93
2018-08-08T08:15:42.999Z,12.57
2018-08-08T08:18:11.564Z,13.43
2018-08-08T08:20:40.432Z,12.50
2018-08-08T08:23:08.746Z,12.57
2018-08-08T08:25:37.478Z,14.13
2018-08-08T08:28:06.191Z,11.27
2018-08-08T08:30:34.456Z,12.60
2018-08-08T08:33:02.689Z,13.43
2018-08-08T08:35:31.240Z,12.50
2018-08-08T08:37:59.825Z,12.80
2018-08-08T08:40:32.334Z,10.73
2018-08-08T08:43:00.889Z,17.03
2018-08-08T08:45:29.780Z,9.60
2018-08-08T08:47:58.335Z,12.60
2018-08-08T08:50:26.942Z,11.60
2018-08-08T08:52:55.632Z,10.77
2018-08-08T08:55:25.313Z,10.70
2018-08-08T08:57:54.209Z,13.87
2018-08-08T09:00:22.746Z,10.30
2018-08-08T09:02:51.031Z,10.07
2018-08-08T09:05:19.240Z,9.87
2018-08-08T09:07:47.465Z,12.97
2018-08-08T09:10:16.043Z,8.40
2018-08-08T09:12:44.925Z,11.17
2018-08-08T09:15:13.737Z,10.13
2018-08-08T09:17:42.309Z,9.50
2018-08-08T09:20:10.893Z,7.17
2018-08-08T09:22:39.316Z,10.37
2018-08-08T09:25:07.925Z,6.63
2018-08-08T09:27:36.664Z,8.37
2018-08-08T09:30:09.953Z,7.47
2018-08-08T09:32:41.162Z,6.83
2018-08-08T09:35:09.595Z,7.60
2018-08-08T09:37:38.848Z,6.33
2018-08-08T09:40:08.111Z,8.60
2018-08-08T09:42:37.197Z,8.33
2018-08-08T09:45:06.645Z,14.37
2018-08-08T09:47:35.193Z,6.27
2018-08-08T09:50:03.455Z,6.80
2018-08-08T09:52:31.689Z,6.20
2018-08-08T09:55:00.615Z,6.30
2018-08-08T09:57:29.509Z,6.80
2018-08-08T09:59:57.730Z,12.73
2018-08-08T10:02:31.865Z,13.27
2018-08-08T10:05:00.439Z,8.40
2018-08-08T10:07:29.044Z,9.20
2018-08-08T10:09:59.400Z,9.10
2018-08-08T10:12:28.284Z,8.07
2018-08-08T10:14:56.830Z,7.53
2018-08-08T10:17:25.323Z,7.50
2018-08-08T10:19:53.562Z,6.40
2018-08-08T10:22:22.134Z,11.40
2018-08-08T10:24:51.029Z,6.53
2018-08-08T10:27:19.236Z,7.10
2018-08-08T10:29:47.800Z,7.27
2018-08-08T10:32:16.632Z,6.90
2018-08-08T10:34:45.526Z,5.80
2018-08-08T10:37:14.082Z,8.13
2018-08-08T10:39:42.655Z,5.87
2018-08-08T10:42:10.910Z,11.53
2018-08-08T10:44:39.474Z,7.17
2018-08-08T10:47:07.693Z,8.40
2018-08-08T10:49:35.920Z,5.53
2018-08-08T10:52:04.154Z,5.70
2018-08-08T10:54:32.777Z,10.13
2018-08-08T10:57:01.352Z,6.10
2018-08-08T10:59:30.303Z,8.90
2018-08-08T11:01:58.993Z,11.83
2018-08-08T11:04:27.434Z,7.03
2018-08-08T11:06:57.346Z,6.93
2018-08-08T11:09:25.579Z,9.13
2018-08-08T11:11:54.147Z,9.17
2018-08-08T11:14:23.033Z,5.33
2018-08-08T11:16:51.282Z,5.73
2018-08-08T11:19:20.021Z,6.10
2018-08-08T11:21:48.609Z,5.50
2018-08-08T11:24:16.830Z,6.00
2018-08-08T11:26:45.391Z,6.53
2018-08-08T11:29:15.248Z,5.83
2018-08-08T11:31:43.482Z,5.93
2018-08-08T11:34:11.712Z,5.37
2018-08-08T11:36:39.933Z,8.60
2018-08-08T11:39:09.584Z,5.40
2018-08-08T11:41:38.472Z,6.40
2018-08-08T11:44:06.712Z,5.87
2018-08-08T11:46:35.345Z,5.87
2018-08-08T11:49:03.678Z,5.10
2018-08-08T11:51:32.205Z,5.97
2018-08-08T11:54:00.447Z,7.13
2018-08-08T11:56:29.921Z,4.67
2018-08-08T11:58:58.849Z,5.13
2018-08-08T12:01:27.933Z,5.50
2018-08-08T12:03:56.784Z,7.53
2018-08-08T12:06:25.617Z,5.70
2018-08-08T12:08:54.505Z,5.10
2018-08-08T12:11:23.057Z,5.37
2018-08-08T12:13:51.618Z,5.83
2018-08-08T12:16:20.511Z,9.10
2018-08-08T12:18:48.771Z,5.07
2018-08-08T12:21:17.329Z,5.03
2018-08-08T12:23:45.906Z,5.47
2018-08-08T12:26:14.465Z,6.87
2018-08-08T12:28:43.062Z,4.63
2018-08-08T12:31:11.781Z,3.97
2018-08-08T12:33:40.017Z,4.90
2018-08-08T12:36:09.357Z,4.10
2018-08-08T12:38:38.243Z,4.23
2018-08-08T12:41:07.284Z,8.20
2018-08-08T12:43:35.810Z,10.67
2018-08-08T12:46:04.068Z,21.20
2018-08-08T12:48:32.293Z,16.30
2018-08-08T12:51:00.696Z,8.23
2018-08-08T12:53:29.484Z,7.17
2018-08-08T12:55:58.702Z,9.17
2018-08-08T12:58:27.700Z,6.90
2018-08-08T13:00:56.316Z,8.60
2018-08-08T13:03:24.645Z,9.63
2018-08-08T13:05:53.205Z,8.30
2018-08-08T13:08:21.535Z,7.87
2018-08-08T13:10:50.844Z,12.10
2018-08-08T13:13:19.078Z,16.60
2018-08-08T13:15:47.334Z,35.03
2018-08-08T13:18:15.913Z,17.60
2018-08-08T13:20:44.490Z,11.50
2018-08-08T13:23:13.081Z,15.20
2018-08-08T13:25:42.166Z,19.57
2018-08-08T13:28:10.765Z,11.37
2018-08-08T13:30:39.009Z,11.20
2018-08-08T13:33:08.091Z,6.90
2018-08-08T13:35:36.627Z,7.50
2018-08-08T13:38:05.215Z,6.83
2018-08-08T13:40:34.102Z,6.63
2018-08-08T13:43:02.835Z,7.53
2018-08-08T13:45:31.787Z,7.37
2018-08-08T13:48:00.477Z,11.50
2018-08-08T13:50:29.384Z,18.80
2018-08-08T13:52:57.598Z,41.77
2018-08-08T13:55:26.174Z,11.23
2018-08-08T13:57:54.381Z,10.03
2018-08-08T14:00:22.946Z,5.33
2018-08-08T14:02:51.165Z,10.50
2018-08-08T14:05:19.837Z,9.20
2018-08-08T14:07:48.393Z,11.00
2018-08-08T14:10:17.271Z,8.20
2018-08-08T14:12:46.161Z,18.73
2018-08-08T14:15:16.993Z,6.80
2018-08-08T14:17:45.238Z,5.97
2018-08-08T14:20:14.009Z,7.00
2018-08-08T14:22:43.485Z,5.83
2018-08-08T14:25:12.046Z,5.67
2018-08-08T14:27:41.065Z,5.60
2018-08-08T14:30:09.305Z,6.97
2018-08-08T14:32:37.533Z,12.97
2018-08-08T14:35:06.867Z,5.63
2018-08-08T14:37:35.662Z,11.97
2018-08-08T14:40:04.871Z,8.47
2018-08-08T14:42:38.257Z,5.90
2018-08-08T14:45:07.672Z,8.57
2018-08-08T14:47:36.931Z,7.53
2018-08-08T14:50:06.072Z,8.77
2018-08-08T14:52:34.639Z,6.20
2018-08-08T14:57:40.708Z,8.87
2018-08-08T15:00:12.231Z,8.07
2018-08-08T15:02:41.393Z,6.17
2018-08-08T15:05:11.197Z,8.57
2018-08-08T15:07:40.067Z,7.30
2018-08-08T15:10:08.292Z,7.80
2018-08-08T15:12:37.103Z,8.47
2018-08-08T15:15:07.270Z,8.63
2018-08-08T15:17:36.885Z,13.37
2018-08-08T15:20:05.904Z,9.73
2018-08-08T15:22:35.525Z,9.70
2018-08-08T15:25:05.668Z,15.63
2018-08-08T15:27:40.257Z,9.17
2018-08-08T15:32:49.576Z,20.90
2018-08-08T15:35:28.520Z,15.97
2018-08-08T15:40:56.027Z,12.67
2018-08-08T15:43:24.983Z,15.07
2018-08-08T15:45:54.906Z,10.73
2018-08-08T15:48:23.854Z,10.10
2018-08-08T15:50:53.358Z,9.93
2018-08-08T15:53:21.682Z,19.13
2018-08-08T15:56:13.451Z,8.93
2018-08-08T16:01:30.732Z,9.00
2018-08-08T16:03:59.003Z,7.30
2018-08-08T16:06:40.337Z,10.20
2018-08-08T16:09:16.433Z,8.80
2018-08-08T16:11:50.260Z,8.10
2018-08-08T16:14:19.994Z,10.77
2018-08-08T16:16:50.357Z,9.03
2018-08-08T16:19:20.441Z,9.47
2018-08-08T16:21:53.044Z,8.50
2018-08-08T16:24:21.278Z,7.80
2018-08-08T16:26:49.528Z,20.13
2018-08-08T16:29:19.281Z,11.50
2018-08-08T16:31:48.816Z,7.40
2018-08-08T16:34:17.056Z,7.83
2018-08-08T16:36:46.589Z,8.13
2018-08-08T16:39:16.202Z,7.83
2018-08-08T16:41:45.441Z,6.77
2018-08-08T16:44:14.020Z,8.80
2018-08-08T16:46:42.636Z,8.30
2018-08-08T16:49:12.815Z,8.57
2018-08-08T16:51:43.029Z,11.73
2018-08-08T16:54:11.573Z,9.60
2018-08-08T16:56:41.540Z,9.53
2018-08-08T16:59:13.517Z,10.07
2018-08-08T17:01:43.793Z,9.87
2018-08-08T17:04:12.352Z,7.63
2018-08-08T17:06:50.814Z,7.73
2018-08-08T17:09:19.413Z,7.10
2018-08-08T17:11:52.085Z,11.80
2018-08-08T17:19:46.221Z,9.40
2018-08-08T17:22:14.532Z,9.60
2018-08-08T17:25:58.958Z,9.80
2018-08-08T17:28:32.754Z,10.03
2018-08-08T17:31:03.271Z,10.53
2018-08-08T17:33:33.885Z,9.63
2018-08-08T17:36:02.459Z,12.00
2018-08-08T17:38:31.783Z,11.00
2018-08-08T17:41:00.403Z,11.70
2018-08-08T17:43:31.520Z,15.03
2018-08-08T17:46:03.684Z,10.67
2018-08-08T17:48:33.077Z,7.87
2018-08-08T17:51:02.301Z,9.73
2018-08-08T17:53:38.364Z,17.07
2018-08-08T17:56:11.501Z,18.43
2018-08-08T18:01:20.701Z,8.70
2018-08-08T18:03:55.965Z,10.60
2018-08-08T18:06:33.966Z,13.50
2018-08-08T18:09:08.986Z,12.83
2018-08-08T18:11:44.774Z,10.40
2018-08-08T18:14:18.720Z,9.00
2018-08-08T18:16:47.350Z,13.20
2018-08-08T18:19:20.477Z,7.50
2018-08-08T18:21:55.716Z,10.13
2018-08-08T18:24:25.610Z,11.93
2018-08-08T18:26:54.172Z,8.73
2018-08-08T18:29:22.437Z,13.00
2018-08-08T18:31:53.323Z,8.50
2018-08-08T18:34:22.143Z,10.57
2018-08-08T18:36:55.073Z,11.87
2018-08-08T18:39:29.543Z,10.00
2018-08-08T18:41:59.626Z,13.83
2018-08-08T18:44:28.310Z,9.97
2018-08-08T18:46:59.751Z,10.77
2018-08-08T18:49:30.909Z,9.80
2018-08-08T18:52:01.630Z,9.73
2018-08-08T18:57:09.021Z,10.20
2018-08-08T18:59:37.732Z,14.90
2018-08-08T19:04:41.413Z,11.20
2018-08-08T19:07:11.973Z,16.17
2018-08-08T19:09:42.577Z,12.40
2018-08-08T19:13:13.671Z,11.40
2018-08-08T19:15:43.336Z,18.37
2018-08-08T19:18:13.935Z,10.40
2018-08-08T19:20:42.629Z,10.90
2018-08-08T19:23:11.382Z,12.83
2018-08-08T19:25:39.989Z,11.80
2018-08-08T19:28:08.898Z,13.07
2018-08-08T19:30:37.145Z,13.80
2018-08-08T19:33:05.555Z,11.13
2018-08-08T19:42:32.511Z,13.60
2018-08-08T19:45:05.224Z,9.57
2018-08-08T19:47:34.134Z,11.67
2018-08-08T19:50:02.397Z,9.20
2018-08-08T19:52:31.717Z,12.67
2018-08-08T19:55:00.330Z,10.50
2018-08-08T19:57:29.229Z,12.50
2018-08-08T19:59:57.881Z,8.67
2018-08-08T20:02:26.170Z,10.13
2018-08-08T20:04:54.604Z,12.63
2018-08-08T20:07:35.714Z,10.30
2018-08-08T20:10:09.061Z,13.60
2018-08-08T20:12:37.681Z,11.27
2018-08-08T20:15:06.313Z,13.83
2018-08-08T20:17:34.628Z,11.33
2018-08-08T20:20:04.646Z,12.93
2018-08-08T20:22:33.785Z,13.23
2018-08-08T20:25:03.143Z,12.97
2018-08-08T20:27:40.741Z,14.03
2018-08-08T20:30:09.217Z,9.30
2018-08-08T20:32:37.505Z,10.50
2018-08-08T20:35:06.166Z,14.23
2018-08-08T20:37:34.847Z,16.53
2018-08-08T20:40:03.824Z,12.07
2018-08-08T20:42:34.613Z,11.30
2018-08-08T20:45:03.290Z,11.77
2018-08-08T20:47:32.394Z,14.67
2018-08-08T20:50:01.030Z,10.43
2018-08-08T20:52:29.602Z,11.37
2018-08-08T20:54:58.799Z,16.17
2018-08-08T20:57:27.594Z,10.57
2018-08-08T20:59:56.535Z,10.43
2018-08-08T21:02:25.465Z,12.73
2018-08-08T21:04:55.592Z,11.70
2018-08-08T21:07:24.730Z,13.70
2018-08-08T21:09:53.320Z,11.80
2018-08-08T21:12:21.941Z,12.43
2018-08-08T21:14:51.718Z,10.60
2018-08-08T21:17:20.351Z,12.17
2018-08-08T21:19:49.977Z,16.63
2018-08-08T21:22:19.911Z,12.50
2018-08-08T21:24:49.089Z,13.00
2018-08-08T21:27:17.709Z,15.63
2018-08-08T21:29:45.991Z,15.03
2018-08-08T21:45:53.742Z,13.33
2018-08-08T21:48:23.415Z,12.87
2018-08-08T21:54:07.861Z,14.00
2018-08-08T21:56:47.627Z,13.30
2018-08-08T21:59:27.145Z,12.60
2018-08-08T22:02:06.784Z,12.07
2018-08-08T22:04:46.540Z,11.63
2018-08-08T22:07:26.371Z,11.77
2018-08-08T22:10:06.016Z,15.20
2018-08-08T22:12:45.778Z,11.17
2018-08-08T22:15:25.735Z,11.40
2018-08-08T22:18:05.462Z,13.83
2018-08-08T22:20:34.640Z,12.20
2018-08-08T22:23:03.003Z,11.03
2018-08-08T22:26:55.831Z,13.00
2018-08-08T22:29:24.736Z,13.30
2018-08-08T22:31:53.516Z,16.83
2018-08-08T22:34:22.380Z,13.20
2018-08-08T22:36:50.988Z,11.00
2018-08-08T22:39:19.697Z,10.47
2018-08-08T22:41:48.296Z,10.83
2018-08-08T22:44:16.573Z,11.50
2018-08-08T22:46:44.814Z,10.23
2018-08-08T22:49:13.737Z,11.70
2018-08-08T22:51:41.957Z,9.63
2018-08-08T22:54:10.245Z,16.60
2018-08-08T22:56:38.805Z,15.03
2018-08-08T22:59:07.733Z,11.80
2018-08-08T23:01:36.641Z,10.43
2018-08-08T23:04:05.886Z,11.57
2018-08-08T23:06:35.313Z,10.40
2018-08-08T23:09:03.729Z,10.97
2018-08-08T23:11:31.973Z,11.13
2018-08-08T23:14:00.701Z,11.10
2018-08-08T23:16:29.309Z,10.93
2018-08-08T23:18:57.921Z,12.70
2018-08-08T23:21:26.472Z,13.33
2018-08-08T23:23:55.043Z,11.80
2018-08-08T23:26:23.949Z,12.43
2018-08-08T23:28:53.381Z,11.63
2018-08-08T23:31:21.957Z,12.23
2018-08-08T23:33:50.181Z,15.97
2018-08-08T23:36:19.091Z,15.53
2018-08-08T23:38:47.676Z,12.93
2018-08-08T23:41:15.912Z,11.53
2018-08-08T23:43:45.176Z,11.20
2018-08-08T23:46:14.103Z,11.70
2018-08-08T23:48:42.376Z,11.73
2018-08-08T23:51:10.985Z,11.30
2018-08-08T23:53:40.609Z,12.50
2018-08-08T23:56:09.352Z,11.30
2018-08-08T23:58:38.495Z,14.50
